createdAt,value
2023-01-15T00:02:16.747Z,8.60
2023-01-15T00:04:43.877Z,8.60
2023-01-15T00:07:10.804Z,8.60
2023-01-15T00:09:37.814Z,8.60
2023-01-15T00:12:05.210Z,8.50
2023-01-15T00:14:32.157Z,8.60
2023-01-15T00:16:59.106Z,8.60
2023-01-15T00:19:26.048Z,8.60
2023-01-15T00:21:53.995Z,8.60
2023-01-15T00:24:41.645Z,8.50
2023-01-15T00:27:33.138Z,8.50
2023-01-15T00:30:03.483Z,8.40
2023-01-15T00:32:30.742Z,8.50
2023-01-15T00:35:01.065Z,8.40
2023-01-15T00:37:28.129Z,8.40
2023-01-15T00:39:55.114Z,8.40
2023-01-15T00:42:22.087Z,8.40
2023-01-15T00:44:49.046Z,8.40
2023-01-15T00:47:16.171Z,8.30
2023-01-15T00:49:43.449Z,8.30
2023-01-15T00:52:11.517Z,8.30
2023-01-15T00:54:38.623Z,8.30
2023-01-15T00:57:05.613Z,8.30
2023-01-15T00:59:32.657Z,8.30
2023-01-15T01:01:59.775Z,8.30
2023-01-15T01:04:26.854Z,8.30
2023-01-15T01:06:54.301Z,8.30
2023-01-15T01:09:21.521Z,8.30
2023-01-15T01:11:50.177Z,8.30
2023-01-15T01:14:17.165Z,8.30
2023-01-15T01:16:44.258Z,8.30
2023-01-15T01:19:19.004Z,8.30
2023-01-15T01:21:47.830Z,8.20
2023-01-15T01:24:22.495Z,8.20
2023-01-15T01:26:52.731Z,8.20
2023-01-15T01:29:22.581Z,8.20
2023-01-15T01:31:51.144Z,8.10
2023-01-15T01:34:18.109Z,8.10
2023-01-15T01:36:45.586Z,8.00
2023-01-15T01:39:19.033Z,8.00
2023-01-15T01:41:47.649Z,8.00
2023-01-15T01:44:32.792Z,8.00
2023-01-15T01:47:07.762Z,7.90
2023-01-15T01:49:37.151Z,7.90
2023-01-15T01:52:13.845Z,7.80
2023-01-15T01:54:49.198Z,7.80
2023-01-15T01:57:19.165Z,7.80
2023-01-15T01:59:47.867Z,7.80
2023-01-15T02:02:17.246Z,7.80
2023-01-15T02:04:44.855Z,7.80
2023-01-15T02:07:12.093Z,7.80
2023-01-15T02:09:39.182Z,7.80
2023-01-15T02:12:37.122Z,7.80
2023-01-15T02:15:14.613Z,7.80
2023-01-15T02:17:56.820Z,7.80
2023-01-15T02:20:41.835Z,7.80
2023-01-15T02:23:21.362Z,7.80
2023-01-15T02:26:38.236Z,7.80
2023-01-15T02:29:10.911Z,7.80
2023-01-15T02:31:43.864Z,7.70
2023-01-15T02:34:19.832Z,7.70
2023-01-15T02:37:11.216Z,7.70
2023-01-15T02:39:42.691Z,7.70
2023-01-15T02:42:14.095Z,7.70
2023-01-15T02:44:47.735Z,7.60
2023-01-15T02:47:20.932Z,7.60
2023-01-15T02:49:49.185Z,7.60
2023-01-15T02:52:31.964Z,7.60
2023-01-15T02:55:09.314Z,7.60
2023-01-15T02:57:41.759Z,7.50
2023-01-15T03:00:14.099Z,7.50
2023-01-15T03:03:02.260Z,7.60
2023-01-15T03:05:50.741Z,7.50
2023-01-15T03:08:21.706Z,7.50
2023-01-15T03:11:10.834Z,7.50
2023-01-15T03:13:44.862Z,7.50
2023-01-15T03:16:37.673Z,7.50
2023-01-15T03:19:27.551Z,7.50
2023-01-15T03:22:27.581Z,7.50
2023-01-15T03:25:19.568Z,7.50
2023-01-15T03:27:46.627Z,7.40
2023-01-15T03:30:19.139Z,7.40
2023-01-15T03:32:47.371Z,7.40
2023-01-15T03:35:50.095Z,7.40
2023-01-15T03:38:24.348Z,7.40
2023-01-15T03:41:36.167Z,7.30
2023-01-15T03:45:15.092Z,7.30
2023-01-15T03:47:48.210Z,7.30
2023-01-15T03:50:48.218Z,7.20
2023-01-15T03:53:35.107Z,7.20
2023-01-15T03:56:11.246Z,7.20
2023-01-15T03:58:56.949Z,7.10
2023-01-15T04:01:37.946Z,7.10
2023-01-15T04:04:06.829Z,7.10
2023-01-15T04:06:36.857Z,7.10
2023-01-15T04:09:07.036Z,7.10
2023-01-15T04:11:34.201Z,7.10
2023-01-15T04:14:01.150Z,7.10
2023-01-15T04:16:31.644Z,7.10
2023-01-15T04:18:59.237Z,7.10
2023-01-15T04:21:26.738Z,7.10
2023-01-15T04:23:53.768Z,7.20
2023-01-15T04:26:20.931Z,7.20
2023-01-15T04:28:48.005Z,7.20
2023-01-15T04:31:15.786Z,7.20
2023-01-15T04:33:42.789Z,7.20
2023-01-15T04:36:10.310Z,7.20
2023-01-15T04:38:38.519Z,7.10
2023-01-15T04:41:24.961Z,7.10
2023-01-15T04:44:07.298Z,7.10
2023-01-15T04:46:46.224Z,7.10
2023-01-15T04:49:16.900Z,7.10
2023-01-15T04:51:46.468Z,7.10
2023-01-15T04:54:15.904Z,7.10
2023-01-15T04:56:46.863Z,7.10
2023-01-15T04:59:17.036Z,7.10
2023-01-15T05:01:58.030Z,7.00
2023-01-15T05:04:30.310Z,7.00
2023-01-15T05:06:57.276Z,7.00
2023-01-15T05:09:24.277Z,7.00
2023-01-15T05:12:03.508Z,7.00
2023-01-15T05:14:30.535Z,7.10
2023-01-15T05:16:57.690Z,7.00
2023-01-15T05:19:24.614Z,7.00
2023-01-15T05:21:51.615Z,7.00
2023-01-15T05:24:19.696Z,6.90
2023-01-15T05:26:46.971Z,6.70
2023-01-15T05:29:14.233Z,6.60
2023-01-15T05:31:42.774Z,6.50
2023-01-15T05:34:10.411Z,6.40
2023-01-15T05:36:41.116Z,6.30
2023-01-15T05:39:08.970Z,6.20
2023-01-15T05:41:54.997Z,6.10
2023-01-15T05:44:28.515Z,6.00
2023-01-15T05:47:00.326Z,6.00
2023-01-15T05:49:31.207Z,6.00
2023-01-15T05:52:00.647Z,5.90
2023-01-15T05:54:34.601Z,5.80
2023-01-15T05:57:02.030Z,5.80
2023-01-15T05:59:31.272Z,5.80
2023-01-15T06:01:58.474Z,5.70
2023-01-15T06:04:25.917Z,5.70
2023-01-15T06:06:54.932Z,5.70
2023-01-15T06:09:23.211Z,5.70
2023-01-15T06:11:50.658Z,5.60
2023-01-15T06:14:18.035Z,5.60
2023-01-15T06:16:45.150Z,5.60
2023-01-15T06:19:13.735Z,5.50
2023-01-15T06:21:41.214Z,5.50
2023-01-15T06:24:09.122Z,5.50
2023-01-15T06:26:36.294Z,5.40
2023-01-15T06:29:03.270Z,5.40
2023-01-15T06:31:30.569Z,5.40
2023-01-15T06:33:57.723Z,5.30
2023-01-15T06:36:26.804Z,5.40
2023-01-15T06:38:53.933Z,5.40
2023-01-15T06:41:43.499Z,5.40
2023-01-15T06:44:36.341Z,5.40
2023-01-15T06:47:20.551Z,5.40
2023-01-15T06:49:54.055Z,5.40
2023-01-15T06:52:22.230Z,5.40
2023-01-15T06:54:49.172Z,5.40
2023-01-15T06:57:16.409Z,5.40
2023-01-15T06:59:43.529Z,5.40
2023-01-15T07:02:12.272Z,5.40
2023-01-15T07:04:39.274Z,5.40
2023-01-15T07:07:06.386Z,5.40
2023-01-15T07:09:33.500Z,5.40
2023-01-15T07:12:00.526Z,5.40
2023-01-15T07:14:32.087Z,5.30
2023-01-15T07:16:59.381Z,5.30
2023-01-15T07:19:27.709Z,5.40
2023-01-15T07:21:55.022Z,5.40
2023-01-15T07:24:22.740Z,5.40
2023-01-15T07:26:49.777Z,5.40
2023-01-15T07:29:16.773Z,5.40
2023-01-15T07:31:47.749Z,5.40
2023-01-15T07:34:15.696Z,5.40
2023-01-15T07:36:46.533Z,5.40
2023-01-15T07:39:13.712Z,5.40
2023-01-15T07:41:59.463Z,5.40
2023-01-15T07:44:45.102Z,5.40
2023-01-15T07:47:48.231Z,5.50
2023-01-15T07:50:22.391Z,5.50
2023-01-15T07:52:51.994Z,5.50
2023-01-15T07:55:19.944Z,5.40
2023-01-15T07:57:47.062Z,5.40
2023-01-15T08:00:20.665Z,5.50
2023-01-15T08:02:49.898Z,5.50
2023-01-15T08:05:18.014Z,5.40
2023-01-15T08:07:45.445Z,5.40
2023-01-15T08:10:13.971Z,5.40
2023-01-15T08:13:00.001Z,5.40
2023-01-15T08:15:27.199Z,5.50
2023-01-15T08:17:54.275Z,5.70
2023-01-15T08:20:26.388Z,5.90
2023-01-15T08:22:53.873Z,6.20
2023-01-15T08:25:24.301Z,6.40
2023-01-15T08:27:52.129Z,6.60
2023-01-15T08:30:25.602Z,6.60
2023-01-15T08:32:52.917Z,6.90
2023-01-15T08:35:19.985Z,7.00
2023-01-15T08:37:47.039Z,7.10
2023-01-15T08:40:14.109Z,7.30
2023-01-15T08:42:41.286Z,7.40
2023-01-15T08:45:09.412Z,7.50
2023-01-15T08:47:37.415Z,7.60
2023-01-15T08:50:07.674Z,7.60
2023-01-15T08:52:34.766Z,7.50
2023-01-15T08:55:01.731Z,7.50
2023-01-15T08:57:28.639Z,7.40
2023-01-15T08:59:55.891Z,7.40
2023-01-15T09:02:22.837Z,7.50
2023-01-15T09:04:49.833Z,7.60
2023-01-15T09:07:16.945Z,7.70
2023-01-15T09:09:43.945Z,7.30
2023-01-15T09:12:11.000Z,6.90
2023-01-15T09:14:58.564Z,6.50
2023-01-15T09:17:24.899Z,6.30
2023-01-15T09:19:52.196Z,6.20
2023-01-15T09:22:19.299Z,6.10
2023-01-15T09:24:46.563Z,5.90
2023-01-15T09:27:15.079Z,5.90
2023-01-15T09:29:42.063Z,5.80
2023-01-15T09:32:10.567Z,5.80
2023-01-15T09:34:37.622Z,5.70
2023-01-15T09:37:04.641Z,5.70
2023-01-15T09:39:31.927Z,5.70
2023-01-15T09:42:16.225Z,5.70
2023-01-15T09:45:14.175Z,5.60
2023-01-15T09:48:16.237Z,5.50
2023-01-15T09:51:37.666Z,5.50
2023-01-15T09:54:23.286Z,5.40
2023-01-15T09:56:50.485Z,5.40
2023-01-15T09:59:35.026Z,5.50
2023-01-15T10:02:15.143Z,5.50
2023-01-15T10:04:48.975Z,5.50
2023-01-15T10:07:36.194Z,5.60
2023-01-15T10:10:11.942Z,5.80
2023-01-15T10:12:40.270Z,6.00
2023-01-15T10:15:28.264Z,6.20
2023-01-15T10:17:59.196Z,6.40
2023-01-15T10:21:13.462Z,6.50
2023-01-15T10:24:23.394Z,6.40
2023-01-15T10:26:57.414Z,6.40
2023-01-15T10:29:45.474Z,6.50
2023-01-15T10:33:01.453Z,6.70
2023-01-15T10:35:48.091Z,6.70
2023-01-15T10:38:26.609Z,6.70
2023-01-15T10:41:41.532Z,6.70
2023-01-15T10:44:25.327Z,6.70
2023-01-15T10:47:01.577Z,6.70
2023-01-15T10:49:30.371Z,6.80
2023-01-15T10:52:06.220Z,6.90
2023-01-15T10:54:42.964Z,6.90
2023-01-15T10:57:21.828Z,6.90
2023-01-15T10:59:57.321Z,6.90
2023-01-15T11:02:44.714Z,6.90
2023-01-15T11:05:20.980Z,6.90
2023-01-15T11:08:14.092Z,7.00
2023-01-15T11:10:41.373Z,7.10
2023-01-15T11:13:42.740Z,7.20
2023-01-15T11:16:36.338Z,7.20
2023-01-15T11:19:25.055Z,7.20
2023-01-15T11:21:53.628Z,7.30
2023-01-15T11:24:21.021Z,7.40
2023-01-15T11:26:54.842Z,7.30
2023-01-15T11:29:44.390Z,7.30
2023-01-15T11:32:32.860Z,7.30
2023-01-15T11:35:04.518Z,7.30
2023-01-15T11:37:31.622Z,7.20
2023-01-15T11:40:06.354Z,7.10
2023-01-15T11:42:55.123Z,7.10
2023-01-15T11:45:43.101Z,7.10
2023-01-15T11:48:38.981Z,7.20
2023-01-15T11:51:09.014Z,7.40
2023-01-15T11:53:53.346Z,7.50
2023-01-15T11:56:25.357Z,7.50
2023-01-15T11:58:56.997Z,7.50
2023-01-15T12:01:39.311Z,7.40
2023-01-15T12:04:24.688Z,7.40
2023-01-15T12:06:51.830Z,7.40
2023-01-15T12:10:02.950Z,7.40
2023-01-15T12:12:34.107Z,7.50
2023-01-15T12:15:13.160Z,7.70
2023-01-15T12:18:40.286Z,7.70
2023-01-15T12:21:21.912Z,7.80
2023-01-15T12:25:10.264Z,8.00
2023-01-15T12:28:15.048Z,8.10
2023-01-15T12:31:20.004Z,8.00
2023-01-15T12:34:03.195Z,8.00
2023-01-15T12:36:48.894Z,8.10
2023-01-15T12:39:32.531Z,8.10
2023-01-15T12:42:23.534Z,8.10
2023-01-15T12:45:03.989Z,7.90
2023-01-15T12:47:43.552Z,7.90
2023-01-15T12:50:45.029Z,7.90
2023-01-15T12:53:30.300Z,8.00
2023-01-15T12:56:05.303Z,8.00
2023-01-15T12:58:55.054Z,8.00
2023-01-15T13:01:53.084Z,8.00
2023-01-15T13:04:54.273Z,7.90
2023-01-15T13:07:36.085Z,7.80
2023-01-15T13:10:12.750Z,7.60
2023-01-15T13:12:40.031Z,7.60
2023-01-15T13:15:07.766Z,7.40
2023-01-15T13:17:55.621Z,7.30
2023-01-15T13:20:32.190Z,7.20
2023-01-15T13:23:35.975Z,7.20
2023-01-15T13:26:41.999Z,7.10
2023-01-15T13:29:23.493Z,7.10
2023-01-15T13:32:10.565Z,7.10
2023-01-15T13:34:52.441Z,7.10
2023-01-15T13:37:27.516Z,7.10
2023-01-15T13:40:09.572Z,7.10
2023-01-15T13:42:38.915Z,7.00
2023-01-15T13:45:27.716Z,7.00
2023-01-15T13:48:02.835Z,6.90
2023-01-15T13:50:33.980Z,6.90
2023-01-15T13:53:14.233Z,6.90
2023-01-15T13:55:53.086Z,7.00
2023-01-15T13:58:28.387Z,7.00
2023-01-15T14:01:17.381Z,7.00
2023-01-15T14:04:05.066Z,7.00
2023-01-15T14:06:45.757Z,7.10
2023-01-15T14:09:34.293Z,7.10
2023-01-15T14:12:36.521Z,7.10
2023-01-15T14:15:28.086Z,7.00
2023-01-15T14:18:23.733Z,6.90
2023-01-15T14:21:34.931Z,6.90
2023-01-15T14:24:29.661Z,6.90
2023-01-15T14:27:44.280Z,6.90
2023-01-15T14:31:01.467Z,6.80
2023-01-15T14:33:49.909Z,6.80
2023-01-15T14:36:31.876Z,6.70
2023-01-15T14:39:02.218Z,6.70
2023-01-15T14:41:33.403Z,6.70
2023-01-15T14:44:02.275Z,6.70
2023-01-15T14:46:35.026Z,6.70
2023-01-15T14:49:02.485Z,6.60
2023-01-15T14:51:45.653Z,6.60
2023-01-15T14:54:18.556Z,6.60
2023-01-15T14:56:55.502Z,6.60
2023-01-15T14:59:52.544Z,6.50
2023-01-15T15:02:25.542Z,6.50
2023-01-15T15:04:56.173Z,6.40
2023-01-15T15:07:26.909Z,6.40
2023-01-15T15:10:06.747Z,6.40
2023-01-15T15:12:46.508Z,6.40
2023-01-15T15:15:25.270Z,6.30
2023-01-15T15:18:15.719Z,6.10
2023-01-15T15:20:51.445Z,6.00
2023-01-15T15:23:36.887Z,6.00
2023-01-15T15:26:18.006Z,6.00
2023-01-15T15:29:00.042Z,5.90
2023-01-15T15:31:31.466Z,5.90
2023-01-15T15:33:59.134Z,5.90
2023-01-15T15:36:32.737Z,5.90
2023-01-15T15:39:14.549Z,5.80
2023-01-15T15:42:03.348Z,5.80
2023-01-15T15:45:11.974Z,5.70
2023-01-15T15:48:00.424Z,5.60
2023-01-15T15:50:35.174Z,5.40
2023-01-15T15:53:06.920Z,5.30
2023-01-15T15:55:47.830Z,5.20
2023-01-15T15:58:40.907Z,5.20
2023-01-15T16:01:13.577Z,5.20
2023-01-15T16:03:50.740Z,5.20
2023-01-15T16:06:23.758Z,5.20
2023-01-15T16:09:04.892Z,5.20
2023-01-15T16:11:33.836Z,5.30
2023-01-15T16:14:07.031Z,5.40
2023-01-15T16:16:34.696Z,5.40
2023-01-15T16:19:03.018Z,5.40
2023-01-15T16:21:36.551Z,5.40
2023-01-15T16:24:26.748Z,5.30
2023-01-15T16:27:09.172Z,5.30
2023-01-15T16:29:36.703Z,5.30
2023-01-15T16:32:14.506Z,5.30
2023-01-15T16:34:42.150Z,5.30
2023-01-15T16:37:30.740Z,5.30
2023-01-15T16:40:01.878Z,5.40
2023-01-15T16:42:37.690Z,5.40
2023-01-15T16:45:19.570Z,5.40
2023-01-15T16:48:24.989Z,5.50
2023-01-15T16:50:53.350Z,5.50
2023-01-15T16:53:53.769Z,5.60
2023-01-15T16:56:36.083Z,5.60
2023-01-15T16:59:31.007Z,5.70
2023-01-15T17:02:16.180Z,5.80
2023-01-15T17:04:45.306Z,5.80
2023-01-15T17:07:52.521Z,5.90
2023-01-15T17:10:28.486Z,5.90
2023-01-15T17:12:58.762Z,5.90
2023-01-15T17:15:25.648Z,5.90
2023-01-15T17:17:56.437Z,6.00
2023-01-15T17:20:28.052Z,6.00
2023-01-15T17:22:59.152Z,6.10
2023-01-15T17:25:35.155Z,6.10
2023-01-15T17:28:04.072Z,6.10
2023-01-15T17:30:32.214Z,6.10
2023-01-15T17:33:01.531Z,6.20
2023-01-15T17:35:34.126Z,6.20
2023-01-15T17:38:01.193Z,6.20
2023-01-15T17:40:28.997Z,6.30
2023-01-15T17:42:56.276Z,6.40
2023-01-15T17:45:27.474Z,6.40
2023-01-15T17:47:54.657Z,6.50
2023-01-15T17:50:23.159Z,6.50
2023-01-15T17:52:50.633Z,6.60
2023-01-15T17:55:40.166Z,6.60
2023-01-15T17:58:27.108Z,6.60
2023-01-15T18:01:17.444Z,6.60
2023-01-15T18:04:08.923Z,6.70
2023-01-15T18:06:40.482Z,6.70
2023-01-15T18:09:08.347Z,6.70
2023-01-15T18:11:36.024Z,6.70
2023-01-15T18:14:03.399Z,6.70
2023-01-15T18:16:30.607Z,6.70
2023-01-15T18:18:57.625Z,6.60
2023-01-15T18:21:24.868Z,6.70
2023-01-15T18:23:51.870Z,6.70
2023-01-15T18:26:18.965Z,6.70
2023-01-15T18:28:46.984Z,6.60
2023-01-15T18:31:14.430Z,6.60
2023-01-15T18:33:41.496Z,6.60
2023-01-15T18:36:11.894Z,6.50
2023-01-15T18:38:43.737Z,6.50
2023-01-15T18:41:34.261Z,6.50
2023-01-15T18:44:32.833Z,6.60
2023-01-15T18:47:08.554Z,6.60
2023-01-15T18:49:36.850Z,6.60
2023-01-15T18:52:22.942Z,6.70
2023-01-15T18:54:50.005Z,6.70
2023-01-15T18:57:17.032Z,6.80
2023-01-15T18:59:47.434Z,6.80
2023-01-15T19:02:21.149Z,6.80
2023-01-15T19:04:48.791Z,6.80
2023-01-15T19:07:16.468Z,6.80
2023-01-15T19:09:43.575Z,6.80
2023-01-15T19:12:10.599Z,6.80
2023-01-15T19:14:56.111Z,6.70
2023-01-15T19:17:44.386Z,6.70
2023-01-15T19:20:15.411Z,6.70
2023-01-15T19:23:02.239Z,6.70
2023-01-15T19:25:51.332Z,6.70
2023-01-15T19:28:20.637Z,6.70
2023-01-15T19:31:07.856Z,6.60
2023-01-15T19:33:37.858Z,6.40
2023-01-15T19:36:05.612Z,6.40
2023-01-15T19:38:36.289Z,6.30
2023-01-15T19:41:30.969Z,6.30
2023-01-15T19:44:17.007Z,6.20
2023-01-15T19:47:05.190Z,6.20
2023-01-15T19:49:58.118Z,6.20
2023-01-15T19:52:37.842Z,6.20
2023-01-15T19:55:08.727Z,6.20
2023-01-15T19:57:35.670Z,6.10
2023-01-15T20:00:07.208Z,6.10
2023-01-15T20:02:35.103Z,6.00
2023-01-15T20:05:03.285Z,6.00
2023-01-15T20:07:30.627Z,6.00
2023-01-15T20:09:57.659Z,6.00
2023-01-15T20:12:43.033Z,5.90
2023-01-15T20:15:10.193Z,5.90
2023-01-15T20:17:37.222Z,5.90
2023-01-15T20:20:04.935Z,5.90
2023-01-15T20:22:34.917Z,5.90
2023-01-15T20:25:01.900Z,5.90
2023-01-15T20:27:32.592Z,5.80
2023-01-15T20:30:01.208Z,5.80
2023-01-15T20:32:31.636Z,5.80
2023-01-15T20:34:58.577Z,5.80
2023-01-15T20:37:25.726Z,5.80
2023-01-15T20:39:52.791Z,5.80
2023-01-15T20:42:38.788Z,5.70
2023-01-15T20:45:13.607Z,5.70
2023-01-15T20:48:01.595Z,5.70
2023-01-15T20:50:36.205Z,5.70
2023-01-15T20:53:05.636Z,5.60
2023-01-15T20:55:55.926Z,5.60
2023-01-15T20:58:24.988Z,5.60
2023-01-15T21:00:53.577Z,5.60
2023-01-15T21:03:20.840Z,5.50
2023-01-15T21:05:48.080Z,5.50
2023-01-15T21:08:15.210Z,5.50
2023-01-15T21:10:42.321Z,5.40
2023-01-15T21:13:09.367Z,5.30
2023-01-15T21:15:36.619Z,5.30
2023-01-15T21:18:03.784Z,5.40
2023-01-15T21:20:30.759Z,5.40
2023-01-15T21:22:58.190Z,5.50
2023-01-15T21:25:25.612Z,5.50
2023-01-15T21:27:52.930Z,5.60
2023-01-15T21:30:25.686Z,5.60
2023-01-15T21:32:55.745Z,5.60
2023-01-15T21:35:26.026Z,5.60
2023-01-15T21:37:53.025Z,5.60
2023-01-15T21:40:20.036Z,5.50
2023-01-15T21:43:08.587Z,5.50
2023-01-15T21:45:37.985Z,5.40
2023-01-15T21:48:05.132Z,5.40
2023-01-15T21:50:32.155Z,5.30
2023-01-15T21:52:59.123Z,5.30
2023-01-15T21:55:27.208Z,5.20
2023-01-15T21:57:54.136Z,5.20
2023-01-15T22:00:21.350Z,5.20
2023-01-15T22:02:49.740Z,5.10
2023-01-15T22:05:20.324Z,5.10
2023-01-15T22:07:47.516Z,5.10
2023-01-15T22:10:14.492Z,5.10
2023-01-15T22:12:43.192Z,5.10
2023-01-15T22:15:11.719Z,5.10
2023-01-15T22:17:38.854Z,5.10
2023-01-15T22:20:07.202Z,5.10
2023-01-15T22:22:38.754Z,5.10
2023-01-15T22:25:08.490Z,5.10
2023-01-15T22:27:40.612Z,5.00
2023-01-15T22:30:13.033Z,5.10
2023-01-15T22:32:40.089Z,5.10
2023-01-15T22:35:08.431Z,5.00
2023-01-15T22:37:35.380Z,5.10
2023-01-15T22:40:02.350Z,5.10
2023-01-15T22:42:31.172Z,5.10
2023-01-15T22:45:00.434Z,5.20
2023-01-15T22:47:29.352Z,5.10
2023-01-15T22:49:56.613Z,5.10
2023-01-15T22:52:25.678Z,5.00
2023-01-15T22:54:53.651Z,5.10
2023-01-15T22:57:20.767Z,5.00
2023-01-15T22:59:47.884Z,5.00
2023-01-15T23:02:15.026Z,5.00
2023-01-15T23:04:42.301Z,5.10
2023-01-15T23:07:10.053Z,5.00
2023-01-15T23:09:37.245Z,5.10
2023-01-15T23:12:04.518Z,5.10
2023-01-15T23:14:33.832Z,5.00
2023-01-15T23:17:01.220Z,5.00
2023-01-15T23:19:28.345Z,5.00
2023-01-15T23:22:01.237Z,4.90
2023-01-15T23:24:28.248Z,4.90
2023-01-15T23:26:55.213Z,4.90
2023-01-15T23:29:22.330Z,4.90
2023-01-15T23:31:49.373Z,4.90
2023-01-15T23:34:16.477Z,4.80
2023-01-15T23:36:43.441Z,4.80
2023-01-15T23:39:10.488Z,4.80
2023-01-15T23:41:58.989Z,4.80
2023-01-15T23:44:44.511Z,4.80
2023-01-15T23:47:11.485Z,4.70
2023-01-15T23:49:38.568Z,4.70
2023-01-15T23:52:06.201Z,4.80
2023-01-15T23:54:33.351Z,4.70
2023-01-15T23:57:01.984Z,4.70
2023-01-15T23:59:29.647Z,4.70
